sensor_id;sensor_type;location;lat;lon;timestamp;P1;durP1;ratioP1;P2;durP2;ratioP2
2652;SDS011;1336;48.692;9.144;2022-11-20T06:00:25;4.10;;;3.57;;
2652;SDS011;1336;48.692;9.144;2022-11-20T06:01:18;3.38;;;3.17;;
2652;SDS011;1336;48.692;9.144;2022-11-20T06:02:09;3.35;;;3.05;;
2652;SDS011;1336;48.692;9.144;2022-11-20T06:03:01;3.80;;;3.40;;
2652;SDS011;1336;48.692;9.144;2022-11-20T06:03:52;3.97;;;3.57;;
2652;SDS011;1336;48.692;9.144;2022-11-20T06:04:44;3.17;;;2.88;;
2652;SDS011;1336;48.692;9.144;2022-11-20T06:05:35;3.20;;;3.00;;
2652;SDS011;1336;48.692;9.144;2022-11-20T06:06:26;6.10;;;3.53;;
2652;SDS011;1336;48.692;9.144;2022-11-20T06:07:18;3.20;;;2.90;;
2652;SDS011;1336;48.692;9.144;2022-11-20T06:08:09;4.27;;;3.87;;
2652;SDS011;1336;48.692;9.144;2022-11-20T06:08:59;4.97;;;3.10;;
2652;SDS011;1336;48.692;9.144;2022-11-20T06:09:51;3.97;;;3.35;;
2652;SDS011;1336;48.692;9.144;2022-11-20T06:10:42;3.93;;;3.40;;
2652;SDS011;1336;48.692;9.144;2022-11-20T06:11:33;4.30;;;3.50;;
2652;SDS011;1336;48.692;9.144;2022-11-20T06:12:24;3.40;;;3.10;;
2652;SDS011;1336;48.692;9.144;2022-11-20T06:13:16;3.85;;;3.55;;
2652;SDS011;1336;48.692;9.144;2022-11-20T06:14:06;3.83;;;3.53;;
2652;SDS011;1336;48.692;9.144;2022-11-20T06:14:58;3.97;;;3.13;;
2652;SDS011;1336;48.692;9.144;2022-11-20T06:15:50;3.60;;;3.30;;
2652;SDS011;1336;48.692;9.144;2022-11-20T06:16:43;3.22;;;3.03;;
2652;SDS011;1336;48.692;9.144;2022-11-20T06:17:34;3.43;;;3.13;;
2652;SDS011;1336;48.692;9.144;2022-11-20T06:18:25;3.60;;;3.30;;
2652;SDS011;1336;48.692;9.144;2022-11-20T06:19:17;3.40;;;3.15;;
2652;SDS011;1336;48.692;9.144;2022-11-20T06:20:09;5.38;;;3.50;;
2652;SDS011;1336;48.692;9.144;2022-11-20T06:21:01;3.17;;;2.85;;
2652;SDS011;1336;48.692;9.144;2022-11-20T06:21:53;4.22;;;3.40;;
2652;SDS011;1336;48.692;9.144;2022-11-20T06:22:44;3.40;;;3.10;;
2652;SDS011;1336;48.692;9.144;2022-11-20T06:23:36;3.75;;;3.45;;
2652;SDS011;1336;48.692;9.144;2022-11-20T06:24:27;3.53;;;3.22;;
2652;SDS011;1336;48.692;9.144;2022-11-20T06:25:19;3.40;;;3.20;;
2652;SDS011;1336;48.692;9.144;2022-11-20T06:26:11;3.90;;;3.40;;
2652;SDS011;1336;48.692;9.144;2022-11-20T06:27:04;3.55;;;3.20;;
2652;SDS011;1336;48.692;9.144;2022-11-20T06:27:54;3.77;;;3.47;;
2652;SDS011;1336;48.692;9.144;2022-11-20T06:28:46;3.15;;;2.95;;
2652;SDS011;1336;48.692;9.144;2022-11-20T06:29:37;3.20;;;3.00;;
2652;SDS011;1336;48.692;9.144;2022-11-20T06:30:29;3.58;;;3.30;;
2652;SDS011;1336;48.692;9.144;2022-11-20T06:31:22;3.23;;;2.83;;
2652;SDS011;1336;48.692;9.144;2022-11-20T06:32:15;3.55;;;3.25;;
2652;SDS011;1336;48.692;9.144;2022-11-20T06:33:06;3.17;;;2.97;;
2652;SDS011;1336;48.692;9.144;2022-11-20T06:33:58;4.55;;;3.60;;
2652;SDS011;1336;48.692;9.144;2022-11-20T06:34:48;4.27;;;3.87;;
2652;SDS011;1336;48.692;9.144;2022-11-20T06:35:40;3.65;;;3.35;;
2652;SDS011;1336;48.692;9.144;2022-11-20T06:36:31;3.73;;;3.43;;
2652;SDS011;1336;48.692;9.144;2022-11-20T06:37:23;3.72;;;3.42;;
2652;SDS011;1336;48.692;9.144;2022-11-20T06:38:14;4.00;;;3.40;;
2652;SDS011;1336;48.692;9.144;2022-11-20T06:39:06;3.40;;;3.10;;
2652;SDS011;1336;48.692;9.144;2022-11-20T06:39:57;3.47;;;3.17;;
2652;SDS011;1336;48.692;9.144;2022-11-20T06:40:48;3.50;;;3.20;;
2652;SDS011;1336;48.692;9.144;2022-11-20T06:41:39;2.93;;;2.73;;
2652;SDS011;1336;48.692;9.144;2022-11-20T06:42:31;3.10;;;2.90;;
2652;SDS011;1336;48.692;9.144;2022-11-20T06:43:22;4.28;;;3.10;;
2652;SDS011;1336;48.692;9.144;2022-11-20T06:44:14;3.33;;;3.13;;
2652;SDS011;1336;48.692;9.144;2022-11-20T06:45:05;4.10;;;3.63;;
2652;SDS011;1336;48.692;9.144;2022-11-20T06:45:58;3.35;;;3.00;;
2652;SDS011;1336;48.692;9.144;2022-11-20T06:46:50;3.40;;;3.10;;
2652;SDS011;1336;48.692;9.144;2022-11-20T06:47:42;3.45;;;3.25;;
2652;SDS011;1336;48.692;9.144;2022-11-20T06:48:32;3.30;;;3.00;;
2652;SDS011;1336;48.692;9.144;2022-11-20T06:49:24;5.03;;;3.13;;
2652;SDS011;1336;48.692;9.144;2022-11-20T06:50:15;3.50;;;3.28;;
2652;SDS011;1336;48.692;9.144;2022-11-20T06:51:07;3.85;;;3.00;;
2652;SDS011;1336;48.692;9.144;2022-11-20T06:51:58;3.45;;;3.15;;
2652;SDS011;1336;48.692;9.144;2022-11-20T06:52:50;3.63;;;3.15;;
2652;SDS011;1336;48.692;9.144;2022-11-20T06:53:41;3.53;;;3.23;;
2652;SDS011;1336;48.692;9.144;2022-11-20T06:54:33;3.88;;;3.58;;
2652;SDS011;1336;48.692;9.144;2022-11-20T06:55:25;3.30;;;3.10;;
2652;SDS011;1336;48.692;9.144;2022-11-20T06:56:17;3.78;;;3.47;;
2652;SDS011;1336;48.692;9.144;2022-11-20T06:57:07;3.13;;;2.87;;
2652;SDS011;1336;48.692;9.144;2022-11-20T06:57:59;3.50;;;3.20;;
2652;SDS011;1336;48.692;9.144;2022-11-20T06:58:50;3.27;;;2.97;;
2652;SDS011;1336;48.692;9.144;2022-11-20T06:59:41;3.22;;;3.03;;
2652;SDS011;1336;48.692;9.144;2022-11-20T07:00:32;3.13;;;2.83;;
2652;SDS011;1336;48.692;9.144;2022-11-20T07:01:24;3.95;;;3.47;;
2652;SDS011;1336;48.692;9.144;2022-11-20T07:02:16;3.70;;;3.27;;
2652;SDS011;1336;48.692;9.144;2022-11-20T07:03:08;4.40;;;3.20;;
2652;SDS011;1336;48.692;9.144;2022-11-20T07:04:00;3.85;;;3.45;;
2652;SDS011;1336;48.692;9.144;2022-11-20T07:04:52;3.95;;;3.40;;
2652;SDS011;1336;48.692;9.144;2022-11-20T07:05:42;3.00;;;2.80;;
2652;SDS011;1336;48.692;9.144;2022-11-20T07:06:35;5.97;;;3.42;;
2652;SDS011;1336;48.692;9.144;2022-11-20T07:07:26;2.90;;;2.70;;
2652;SDS011;1336;48.692;9.144;2022-11-20T07:08:18;4.07;;;3.78;;
2652;SDS011;1336;48.692;9.144;2022-11-20T07:09:09;3.13;;;2.93;;
2652;SDS011;1336;48.692;9.144;2022-11-20T07:10:00;3.78;;;3.42;;
2652;SDS011;1336;48.692;9.144;2022-11-20T07:10:51;3.00;;;2.80;;
2652;SDS011;1336;48.692;9.144;2022-11-20T07:11:43;2.90;;;2.70;;
2652;SDS011;1336;48.692;9.144;2022-11-20T07:12:34;3.30;;;3.00;;
2652;SDS011;1336;48.692;9.144;2022-11-20T07:13:26;3.05;;;2.85;;
2652;SDS011;1336;48.692;9.144;2022-11-20T07:14:16;3.55;;;3.25;;
2652;SDS011;1336;48.692;9.144;2022-11-20T07:15:08;5.07;;;3.33;;
2652;SDS011;1336;48.692;9.144;2022-11-20T07:15:59;3.40;;;3.10;;
2652;SDS011;1336;48.692;9.144;2022-11-20T07:16:52;3.70;;;3.40;;
2652;SDS011;1336;48.692;9.144;2022-11-20T07:17:44;3.40;;;3.20;;
2652;SDS011;1336;48.692;9.144;2022-11-20T07:18:36;3.60;;;3.22;;
2652;SDS011;1336;48.692;9.144;2022-11-20T07:19:27;3.07;;;2.87;;
2652;SDS011;1336;48.692;9.144;2022-11-20T07:20:19;3.70;;;3.42;;
2652;SDS011;1336;48.692;9.144;2022-11-20T07:21:09;4.20;;;2.70;;
2652;SDS011;1336;48.692;9.144;2022-11-20T07:22:01;3.75;;;3.25;;
2652;SDS011;1336;48.692;9.144;2022-11-20T07:22:53;4.10;;;2.90;;
2652;SDS011;1336;48.692;9.144;2022-11-20T07:23:45;3.45;;;3.15;;
2652;SDS011;1336;48.692;9.144;2022-11-20T07:24:36;3.30;;;3.10;;
2652;SDS011;1336;48.692;9.144;2022-11-20T07:25:28;3.30;;;3.00;;
2652;SDS011;1336;48.692;9.144;2022-11-20T07:26:20;3.80;;;3.00;;
2652;SDS011;1336;48.692;9.144;2022-11-20T07:27:12;3.35;;;3.05;;
2652;SDS011;1336;48.692;9.144;2022-11-20T07:28:03;3.30;;;3.07;;
2652;SDS011;1336;48.692;9.144;2022-11-20T07:28:54;3.30;;;3.05;;
2652;SDS011;1336;48.692;9.144;2022-11-20T07:29:45;2.83;;;2.63;;
2652;SDS011;1336;48.692;9.144;2022-11-20T07:30:37;4.22;;;3.40;;
2652;SDS011;1336;48.692;9.144;2022-11-20T07:31:28;5.40;;;3.90;;
2652;SDS011;1336;48.692;9.144;2022-11-20T07:32:19;4.00;;;3.53;;
2652;SDS011;1336;48.692;9.144;2022-11-20T07:33:11;3.40;;;3.07;;
2652;SDS011;1336;48.692;9.144;2022-11-20T07:34:03;3.40;;;3.10;;
2652;SDS011;1336;48.692;9.144;2022-11-20T07:34:54;3.57;;;3.27;;
2652;SDS011;1336;48.692;9.144;2022-11-20T07:35:45;4.20;;;3.05;;
2652;SDS011;1336;48.692;9.144;2022-11-20T07:36:36;3.17;;;2.80;;
2652;SDS011;1336;48.692;9.144;2022-11-20T07:37:28;3.15;;;2.85;;
2652;SDS011;1336;48.692;9.144;2022-11-20T07:38:19;3.87;;;3.03;;
2652;SDS011;1336;48.692;9.144;2022-11-20T07:39:11;5.00;;;3.05;;
2652;SDS011;1336;48.692;9.144;2022-11-20T07:40:02;3.07;;;2.77;;
2652;SDS011;1336;48.692;9.144;2022-11-20T07:40:54;4.22;;;2.90;;
2652;SDS011;1336;48.692;9.144;2022-11-20T07:41:45;3.08;;;2.85;;
2652;SDS011;1336;48.692;9.144;2022-11-20T07:42:37;2.97;;;2.65;;
2652;SDS011;1336;48.692;9.144;2022-11-20T07:43:28;3.20;;;2.87;;
2652;SDS011;1336;48.692;9.144;2022-11-20T07:44:19;3.33;;;3.03;;
2652;SDS011;1336;48.692;9.144;2022-11-20T07:45:10;2.90;;;2.60;;
2652;SDS011;1336;48.692;9.144;2022-11-20T07:46:02;3.83;;;3.10;;
2652;SDS011;1336;48.692;9.144;2022-11-20T07:46:53;3.20;;;3.00;;
2652;SDS011;1336;48.692;9.144;2022-11-20T07:47:45;3.13;;;2.83;;
2652;SDS011;1336;48.692;9.144;2022-11-20T07:48:37;3.50;;;3.20;;
2652;SDS011;1336;48.692;9.144;2022-11-20T07:49:29;2.40;;;2.20;;
2652;SDS011;1336;48.692;9.144;2022-11-20T07:50:20;2.80;;;2.60;;
2652;SDS011;1336;48.692;9.144;2022-11-20T07:51:12;3.90;;;3.55;;
2652;SDS011;1336;48.692;9.144;2022-11-20T07:52:03;3.20;;;2.90;;
2652;SDS011;1336;48.692;9.144;2022-11-20T07:53:00;3.35;;;3.10;;
2652;SDS011;1336;48.692;9.144;2022-11-20T07:53:51;3.20;;;2.90;;
2652;SDS011;1336;48.692;9.144;2022-11-20T07:54:43;3.13;;;2.83;;
2652;SDS011;1336;48.692;9.144;2022-11-20T07:55:33;2.67;;;2.47;;
2652;SDS011;1336;48.692;9.144;2022-11-20T07:56:26;2.80;;;2.58;;
2652;SDS011;1336;48.692;9.144;2022-11-20T07:57:16;2.70;;;2.50;;
2652;SDS011;1336;48.692;9.144;2022-11-20T07:58:08;2.85;;;2.63;;
2652;SDS011;1336;48.692;9.144;2022-11-20T07:58:59;3.43;;;2.87;;
2652;SDS011;1336;48.692;9.144;2022-11-20T07:59:51;2.85;;;2.65;;
2652;SDS011;1336;48.692;9.144;2022-11-20T08:00:41;3.30;;;2.70;;
2652;SDS011;1336;48.692;9.144;2022-11-20T08:01:33;2.78;;;2.55;;
2652;SDS011;1336;48.692;9.144;2022-11-20T08:02:24;2.93;;;2.73;;
2652;SDS011;1336;48.692;9.144;2022-11-20T08:03:16;2.60;;;2.45;;
2652;SDS011;1336;48.692;9.144;2022-11-20T08:04:08;2.90;;;2.63;;
2652;SDS011;1336;48.692;9.144;2022-11-20T08:05:00;3.00;;;2.80;;
2652;SDS011;1336;48.692;9.144;2022-11-20T08:05:51;2.97;;;2.63;;
2652;SDS011;1336;48.692;9.144;2022-11-20T08:06:42;4.38;;;3.03;;
2652;SDS011;1336;48.692;9.144;2022-11-20T08:07:36;3.30;;;3.00;;
2652;SDS011;1336;48.692;9.144;2022-11-20T08:08:28;2.60;;;2.40;;
2652;SDS011;1336;48.692;9.144;2022-11-20T08:09:19;3.07;;;2.77;;
2652;SDS011;1336;48.692;9.144;2022-11-20T08:10:11;3.05;;;2.75;;
2652;SDS011;1336;48.692;9.144;2022-11-20T08:11:04;2.92;;;2.72;;
2652;SDS011;1336;48.692;9.144;2022-11-20T08:12:16;2.60;;;2.40;;
2652;SDS011;1336;48.692;9.144;2022-11-20T08:13:27;3.30;;;3.00;;
2652;SDS011;1336;48.692;9.144;2022-11-20T08:14:36;4.07;;;3.50;;
2652;SDS011;1336;48.692;9.144;2022-11-20T08:15:27;5.22;;;2.90;;
2652;SDS011;1336;48.692;9.144;2022-11-20T08:16:18;3.60;;;2.70;;
2652;SDS011;1336;48.692;9.144;2022-11-20T08:17:11;2.90;;;2.70;;
2652;SDS011;1336;48.692;9.144;2022-11-20T08:18:02;3.00;;;2.60;;
2652;SDS011;1336;48.692;9.144;2022-11-20T08:18:55;3.50;;;2.92;;
2652;SDS011;1336;48.692;9.144;2022-11-20T08:19:47;3.60;;;2.83;;
2652;SDS011;1336;48.692;9.144;2022-11-20T08:20:39;3.17;;;2.88;;
2652;SDS011;1336;48.692;9.144;2022-11-20T08:21:30;2.80;;;2.60;;
2652;SDS011;1336;48.692;9.144;2022-11-20T08:22:22;2.92;;;2.63;;
2652;SDS011;1336;48.692;9.144;2022-11-20T08:23:13;2.80;;;2.60;;
2652;SDS011;1336;48.692;9.144;2022-11-20T08:24:05;3.75;;;3.03;;
2652;SDS011;1336;48.692;9.144;2022-11-20T08:24:56;2.90;;;2.70;;
2652;SDS011;1336;48.692;9.144;2022-11-20T08:25:48;2.97;;;2.50;;
2652;SDS011;1336;48.692;9.144;2022-11-20T08:26:40;2.90;;;2.67;;
2652;SDS011;1336;48.692;9.144;2022-11-20T08:27:32;3.33;;;2.67;;
2652;SDS011;1336;48.692;9.144;2022-11-20T08:28:22;3.00;;;2.70;;
2652;SDS011;1336;48.692;9.144;2022-11-20T08:29:14;2.70;;;2.50;;
2652;SDS011;1336;48.692;9.144;2022-11-20T08:30:05;2.63;;;2.43;;
2652;SDS011;1336;48.692;9.144;2022-11-20T08:30:58;2.70;;;2.50;;
2652;SDS011;1336;48.692;9.144;2022-11-20T08:31:50;3.53;;;2.92;;
2652;SDS011;1336;48.692;9.144;2022-11-20T08:32:42;2.42;;;2.22;;
2652;SDS011;1336;48.692;9.144;2022-11-20T08:33:32;3.83;;;2.63;;
2652;SDS011;1336;48.692;9.144;2022-11-20T08:34:24;3.65;;;2.92;;
2652;SDS011;1336;48.692;9.144;2022-11-20T08:35:16;4.83;;;2.83;;
2652;SDS011;1336;48.692;9.144;2022-11-20T08:36:08;3.05;;;2.75;;
2652;SDS011;1336;48.692;9.144;2022-11-20T08:36:59;2.70;;;2.50;;
2652;SDS011;1336;48.692;9.144;2022-11-20T08:37:52;2.80;;;2.60;;
2652;SDS011;1336;48.692;9.144;2022-11-20T08:38:46;2.83;;;2.63;;
2652;SDS011;1336;48.692;9.144;2022-11-20T08:39:39;3.10;;;2.80;;
2652;SDS011;1336;48.692;9.144;2022-11-20T08:40:29;2.80;;;2.60;;
2652;SDS011;1336;48.692;9.144;2022-11-20T08:41:22;5.43;;;3.00;;
2652;SDS011;1336;48.692;9.144;2022-11-20T08:42:16;2.85;;;2.55;;
2652;SDS011;1336;48.692;9.144;2022-11-20T08:43:08;2.40;;;2.20;;
2652;SDS011;1336;48.692;9.144;2022-11-20T08:43:59;2.80;;;2.60;;
2652;SDS011;1336;48.692;9.144;2022-11-20T08:44:52;3.25;;;2.67;;
2652;SDS011;1336;48.692;9.144;2022-11-20T08:45:43;2.70;;;2.50;;
2652;SDS011;1336;48.692;9.144;2022-11-20T08:46:35;2.80;;;2.60;;
2652;SDS011;1336;48.692;9.144;2022-11-20T08:47:27;2.80;;;2.60;;
2652;SDS011;1336;48.692;9.144;2022-11-20T08:48:19;3.00;;;2.08;;
2652;SDS011;1336;48.692;9.144;2022-11-20T08:49:10;2.87;;;2.20;;
2652;SDS011;1336;48.692;9.144;2022-11-20T08:50:03;3.08;;;2.78;;
2652;SDS011;1336;48.692;9.144;2022-11-20T08:50:58;2.50;;;2.30;;
2652;SDS011;1336;48.692;9.144;2022-11-20T08:51:50;2.63;;;2.42;;
2652;SDS011;1336;48.692;9.144;2022-11-20T08:52:45;2.80;;;2.60;;
2652;SDS011;1336;48.692;9.144;2022-11-20T08:53:35;2.60;;;2.40;;
2652;SDS011;1336;48.692;9.144;2022-11-20T08:54:27;3.30;;;2.72;;
2652;SDS011;1336;48.692;9.144;2022-11-20T08:55:19;2.90;;;2.70;;
2652;SDS011;1336;48.692;9.144;2022-11-20T08:56:09;2.87;;;2.67;;
2652;SDS011;1336;48.692;9.144;2022-11-20T08:57:01;2.70;;;2.50;;
2652;SDS011;1336;48.692;9.144;2022-11-20T08:57:52;3.07;;;2.60;;
2652;SDS011;1336;48.692;9.144;2022-11-20T08:58:44;2.90;;;2.53;;
2652;SDS011;1336;48.692;9.144;2022-11-20T08:59:35;2.70;;;2.50;;
2652;SDS011;1336;48.692;9.144;2022-11-20T09:00:26;2.60;;;2.40;;
2652;SDS011;1336;48.692;9.144;2022-11-20T09:01:17;5.33;;;2.40;;
2652;SDS011;1336;48.692;9.144;2022-11-20T09:02:09;2.55;;;2.35;;
2652;SDS011;1336;48.692;9.144;2022-11-20T09:03:00;2.50;;;2.30;;
2652;SDS011;1336;48.692;9.144;2022-11-20T09:03:52;2.40;;;2.20;;
2652;SDS011;1336;48.692;9.144;2022-11-20T09:04:45;2.80;;;2.60;;
2652;SDS011;1336;48.692;9.144;2022-11-20T09:05:36;2.65;;;2.45;;
2652;SDS011;1336;48.692;9.144;2022-11-20T09:06:28;3.17;;;2.87;;
2652;SDS011;1336;48.692;9.144;2022-11-20T09:07:20;3.03;;;2.53;;
2652;SDS011;1336;48.692;9.144;2022-11-20T09:08:11;2.50;;;2.30;;
2652;SDS011;1336;48.692;9.144;2022-11-20T09:09:03;2.47;;;2.28;;
2652;SDS011;1336;48.692;9.144;2022-11-20T09:09:53;2.80;;;1.97;;
2652;SDS011;1336;48.692;9.144;2022-11-20T09:10:45;2.20;;;2.00;;
2652;SDS011;1336;48.692;9.144;2022-11-20T09:11:40;2.33;;;2.13;;
2652;SDS011;1336;48.692;9.144;2022-11-20T09:12:32;2.25;;;2.00;;
2652;SDS011;1336;48.692;9.144;2022-11-20T09:13:23;2.00;;;1.83;;
2652;SDS011;1336;48.692;9.144;2022-11-20T09:14:15;2.10;;;1.90;;
2652;SDS011;1336;48.692;9.144;2022-11-20T09:15:07;1.90;;;1.80;;
2652;SDS011;1336;48.692;9.144;2022-11-20T09:15:59;3.85;;;2.00;;
2652;SDS011;1336;48.692;9.144;2022-11-20T09:16:52;2.55;;;1.90;;
2652;SDS011;1336;48.692;9.144;2022-11-20T09:17:49;2.43;;;2.10;;
2652;SDS011;1336;48.692;9.144;2022-11-20T09:18:42;2.92;;;1.58;;
2652;SDS011;1336;48.692;9.144;2022-11-20T09:19:32;2.10;;;2.00;;
2652;SDS011;1336;48.692;9.144;2022-11-20T09:20:24;2.25;;;1.70;;
2652;SDS011;1336;48.692;9.144;2022-11-20T09:21:15;1.50;;;1.40;;
2652;SDS011;1336;48.692;9.144;2022-11-20T09:22:09;2.22;;;1.98;;
2652;SDS011;1336;48.692;9.144;2022-11-20T09:22:59;1.60;;;1.40;;
2652;SDS011;1336;48.692;9.144;2022-11-20T09:23:51;2.25;;;1.80;;
2652;SDS011;1336;48.692;9.144;2022-11-20T09:24:42;1.63;;;1.47;;
2652;SDS011;1336;48.692;9.144;2022-11-20T09:25:33;1.88;;;1.65;;
2652;SDS011;1336;48.692;9.144;2022-11-20T09:26:24;2.00;;;1.50;;
2652;SDS011;1336;48.692;9.144;2022-11-20T09:27:16;1.40;;;1.30;;
2652;SDS011;1336;48.692;9.144;2022-11-20T09:28:10;1.58;;;1.48;;
2652;SDS011;1336;48.692;9.144;2022-11-20T09:29:02;1.33;;;1.23;;
2652;SDS011;1336;48.692;9.144;2022-11-20T09:29:53;2.60;;;1.63;;
2652;SDS011;1336;48.692;9.144;2022-11-20T09:30:44;1.30;;;1.20;;
2652;SDS011;1336;48.692;9.144;2022-11-20T09:31:35;1.30;;;1.20;;
2652;SDS011;1336;48.692;9.144;2022-11-20T09:32:27;2.00;;;1.48;;
2652;SDS011;1336;48.692;9.144;2022-11-20T09:33:17;1.27;;;1.00;;
2652;SDS011;1336;48.692;9.144;2022-11-20T09:34:09;1.35;;;1.10;;
2652;SDS011;1336;48.692;9.144;2022-11-20T09:35:00;1.63;;;1.30;;
2652;SDS011;1336;48.692;9.144;2022-11-20T09:35:51;1.42;;;0.93;;
2652;SDS011;1336;48.692;9.144;2022-11-20T09:36:43;1.42;;;1.33;;
2652;SDS011;1336;48.692;9.144;2022-11-20T09:37:36;1.40;;;1.30;;
2652;SDS011;1336;48.692;9.144;2022-11-20T09:38:28;1.50;;;1.40;;
2652;SDS011;1336;48.692;9.144;2022-11-20T09:39:19;1.10;;;1.00;;
2652;SDS011;1336;48.692;9.144;2022-11-20T09:40:15;1.30;;;1.20;;
2652;SDS011;1336;48.692;9.144;2022-11-20T09:41:15;1.65;;;1.55;;
2652;SDS011;1336;48.692;9.144;2022-11-20T09:42:30;1.23;;;1.13;;
2652;SDS011;1336;48.692;9.144;2022-11-20T09:43:30;1.25;;;1.15;;
2652;SDS011;1336;48.692;9.144;2022-11-20T09:44:35;1.55;;;1.45;;
2652;SDS011;1336;48.692;9.144;2022-11-20T09:45:44;1.33;;;1.20;;
2652;SDS011;1336;48.692;9.144;2022-11-20T09:46:51;1.10;;;1.00;;
2652;SDS011;1336;48.692;9.144;2022-11-20T09:47:51;2.47;;;1.02;;
2652;SDS011;1336;48.692;9.144;2022-11-20T09:48:55;1.33;;;1.20;;
2652;SDS011;1336;48.692;9.144;2022-11-20T09:49:59;1.40;;;1.15;;
2652;SDS011;1336;48.692;9.144;2022-11-20T09:51:05;2.03;;;1.17;;
2652;SDS011;1336;48.692;9.144;2022-11-20T09:52:08;1.35;;;1.25;;
2652;SDS011;1336;48.692;9.144;2022-11-20T09:53:19;1.23;;;1.10;;
2652;SDS011;1336;48.692;9.144;2022-11-20T09:54:17;1.05;;;0.95;;
2652;SDS011;1336;48.692;9.144;2022-11-20T09:55:09;1.10;;;1.00;;
2652;SDS011;1336;48.692;9.144;2022-11-20T09:56:03;2.28;;;1.15;;
2652;SDS011;1336;48.692;9.144;2022-11-20T09:56:56;1.33;;;1.23;;
2652;SDS011;1336;48.692;9.144;2022-11-20T09:57:51;1.30;;;1.20;;
2652;SDS011;1336;48.692;9.144;2022-11-20T09:58:42;1.40;;;1.30;;
2652;SDS011;1336;48.692;9.144;2022-11-20T09:59:38;1.85;;;1.20;;
2652;SDS011;1336;48.692;9.144;2022-11-20T10:00:32;1.20;;;1.10;;
2652;SDS011;1336;48.692;9.144;2022-11-20T10:01:26;4.25;;;1.33;;
2652;SDS011;1336;48.692;9.144;2022-11-20T10:02:25;1.45;;;1.10;;
2652;SDS011;1336;48.692;9.144;2022-11-20T10:03:21;1.40;;;1.30;;
2652;SDS011;1336;48.692;9.144;2022-11-20T10:04:25;1.83;;;1.38;;
2652;SDS011;1336;48.692;9.144;2022-11-20T10:05:23;2.45;;;1.52;;
2652;SDS011;1336;48.692;9.144;2022-11-20T10:06:17;1.42;;;1.10;;
2652;SDS011;1336;48.692;9.144;2022-11-20T10:07:13;1.30;;;1.20;;
2652;SDS011;1336;48.692;9.144;2022-11-20T10:08:10;1.55;;;1.42;;
2652;SDS011;1336;48.692;9.144;2022-11-20T10:09:16;1.45;;;1.20;;
2652;SDS011;1336;48.692;9.144;2022-11-20T10:10:14;1.40;;;1.30;;
2652;SDS011;1336;48.692;9.144;2022-11-20T10:11:08;1.50;;;1.40;;
2652;SDS011;1336;48.692;9.144;2022-11-20T10:12:11;1.25;;;1.15;;
2652;SDS011;1336;48.692;9.144;2022-11-20T10:13:11;1.20;;;1.10;;
2652;SDS011;1336;48.692;9.144;2022-11-20T10:14:13;1.35;;;1.25;;
2652;SDS011;1336;48.692;9.144;2022-11-20T10:15:19;1.30;;;1.20;;
2652;SDS011;1336;48.692;9.144;2022-11-20T10:16:23;3.20;;;1.38;;
2652;SDS011;1336;48.692;9.144;2022-11-20T10:17:28;1.30;;;1.20;;
2652;SDS011;1336;48.692;9.144;2022-11-20T10:18:36;1.30;;;1.20;;
2652;SDS011;1336;48.692;9.144;2022-11-20T10:19:43;1.67;;;1.40;;
2652;SDS011;1336;48.692;9.144;2022-11-20T10:20:43;1.40;;;1.00;;
2652;SDS011;1336;48.692;9.144;2022-11-20T10:21:41;1.45;;;1.20;;
2652;SDS011;1336;48.692;9.144;2022-11-20T10:22:45;0.90;;;0.80;;
2652;SDS011;1336;48.692;9.144;2022-11-20T10:23:49;1.30;;;1.20;;
2652;SDS011;1336;48.692;9.144;2022-11-20T10:24:58;1.50;;;1.10;;
2652;SDS011;1336;48.692;9.144;2022-11-20T10:25:55;0.95;;;0.85;;
2652;SDS011;1336;48.692;9.144;2022-11-20T10:26:53;1.00;;;0.90;;
2652;SDS011;1336;48.692;9.144;2022-11-20T10:27:59;1.17;;;1.08;;
2652;SDS011;1336;48.692;9.144;2022-11-20T10:29:09;1.25;;;1.15;;
2652;SDS011;1336;48.692;9.144;2022-11-20T10:30:06;1.33;;;1.20;;
2652;SDS011;1336;48.692;9.144;2022-11-20T10:31:00;1.08;;;0.98;;
2652;SDS011;1336;48.692;9.144;2022-11-20T10:31:54;0.80;;;0.80;;
2652;SDS011;1336;48.692;9.144;2022-11-20T10:32:51;1.63;;;1.05;;
2652;SDS011;1336;48.692;9.144;2022-11-20T10:33:44;1.00;;;0.90;;
2652;SDS011;1336;48.692;9.144;2022-11-20T10:34:42;1.00;;;0.80;;
2652;SDS011;1336;48.692;9.144;2022-11-20T10:35:39;1.10;;;1.00;;
2652;SDS011;1336;48.692;9.144;2022-11-20T10:36:34;1.00;;;0.90;;
2652;SDS011;1336;48.692;9.144;2022-11-20T10:37:29;1.10;;;1.00;;
2652;SDS011;1336;48.692;9.144;2022-11-20T10:38:24;1.10;;;0.98;;
2652;SDS011;1336;48.692;9.144;2022-11-20T10:39:22;1.42;;;1.00;;
2652;SDS011;1336;48.692;9.144;2022-11-20T10:40:22;0.82;;;0.82;;
2652;SDS011;1336;48.692;9.144;2022-11-20T10:41:20;1.10;;;0.80;;
2652;SDS011;1336;48.692;9.144;2022-11-20T10:42:30;0.90;;;0.80;;
2652;SDS011;1336;48.692;9.144;2022-11-20T10:43:27;0.85;;;0.70;;
2652;SDS011;1336;48.692;9.144;2022-11-20T10:44:26;1.08;;;0.90;;
2652;SDS011;1336;48.692;9.144;2022-11-20T10:45:38;0.98;;;0.88;;
2652;SDS011;1336;48.692;9.144;2022-11-20T10:46:37;0.82;;;0.82;;
2652;SDS011;1336;48.692;9.144;2022-11-20T10:47:30;1.30;;;0.93;;
2652;SDS011;1336;48.692;9.144;2022-11-20T10:48:23;0.85;;;0.82;;
2652;SDS011;1336;48.692;9.144;2022-11-20T10:49:16;0.93;;;0.82;;
2652;SDS011;1336;48.692;9.144;2022-11-20T10:50:11;1.33;;;1.02;;
2652;SDS011;1336;48.692;9.144;2022-11-20T10:51:11;1.02;;;0.93;;
2652;SDS011;1336;48.692;9.144;2022-11-20T10:52:10;1.08;;;1.00;;
2652;SDS011;1336;48.692;9.144;2022-11-20T10:53:08;1.20;;;1.00;;
2652;SDS011;1336;48.692;9.144;2022-11-20T10:54:12;1.05;;;0.95;;
2652;SDS011;1336;48.692;9.144;2022-11-20T10:55:12;1.23;;;1.13;;
2652;SDS011;1336;48.692;9.144;2022-11-20T10:56:17;1.02;;;0.93;;
2652;SDS011;1336;48.692;9.144;2022-11-20T10:57:15;1.70;;;0.95;;
2652;SDS011;1336;48.692;9.144;2022-11-20T10:58:16;0.82;;;0.82;;
2652;SDS011;1336;48.692;9.144;2022-11-20T11:00:30;1.08;;;0.98;;
2652;SDS011;1336;48.692;9.144;2022-11-20T11:01:21;1.00;;;0.90;;
2652;SDS011;1336;48.692;9.144;2022-11-20T11:02:17;1.15;;;1.05;;
2652;SDS011;1336;48.692;9.144;2022-11-20T11:03:14;1.55;;;1.30;;
2652;SDS011;1336;48.692;9.144;2022-11-20T11:04:18;1.42;;;1.33;;
2652;SDS011;1336;48.692;9.144;2022-11-20T11:05:26;1.88;;;1.48;;
2652;SDS011;1336;48.692;9.144;2022-11-20T11:06:25;5.07;;;2.10;;
2652;SDS011;1336;48.692;9.144;2022-11-20T11:07:23;1.77;;;1.60;;
2652;SDS011;1336;48.692;9.144;2022-11-20T11:08:18;2.83;;;1.80;;
2652;SDS011;1336;48.692;9.144;2022-11-20T11:09:10;1.88;;;1.58;;
2652;SDS011;1336;48.692;9.144;2022-11-20T11:10:12;2.65;;;1.25;;
2652;SDS011;1336;48.692;9.144;2022-11-20T11:11:10;1.35;;;1.25;;
2652;SDS011;1336;48.692;9.144;2022-11-20T11:12:11;1.40;;;1.30;;
2652;SDS011;1336;48.692;9.144;2022-11-20T11:13:02;1.80;;;1.40;;
2652;SDS011;1336;48.692;9.144;2022-11-20T11:14:03;1.98;;;1.20;;
2652;SDS011;1336;48.692;9.144;2022-11-20T11:14:55;1.30;;;1.20;;
2652;SDS011;1336;48.692;9.144;2022-11-20T11:15:48;1.20;;;1.10;;
2652;SDS011;1336;48.692;9.144;2022-11-20T11:16:44;1.60;;;1.23;;
2652;SDS011;1336;48.692;9.144;2022-11-20T11:17:45;1.75;;;1.30;;
2652;SDS011;1336;48.692;9.144;2022-11-20T11:18:38;1.10;;;1.00;;
2652;SDS011;1336;48.692;9.144;2022-11-20T11:19:30;1.15;;;1.05;;
2652;SDS011;1336;48.692;9.144;2022-11-20T11:20:22;1.67;;;1.27;;
2652;SDS011;1336;48.692;9.144;2022-11-20T11:21:19;1.35;;;1.25;;
2652;SDS011;1336;48.692;9.144;2022-11-20T11:22:16;1.33;;;1.15;;
2652;SDS011;1336;48.692;9.144;2022-11-20T11:23:10;1.50;;;0.90;;
2652;SDS011;1336;48.692;9.144;2022-11-20T11:24:20;1.30;;;1.20;;
2652;SDS011;1336;48.692;9.144;2022-11-20T11:25:22;2.00;;;1.67;;
2652;SDS011;1336;48.692;9.144;2022-11-20T11:26:20;1.60;;;1.02;;
2652;SDS011;1336;48.692;9.144;2022-11-20T11:27:13;3.00;;;1.33;;
2652;SDS011;1336;48.692;9.144;2022-11-20T11:28:19;1.23;;;1.13;;
2652;SDS011;1336;48.692;9.144;2022-11-20T11:29:15;1.90;;;1.30;;
2652;SDS011;1336;48.692;9.144;2022-11-20T11:30:12;1.98;;;1.20;;
2652;SDS011;1336;48.692;9.144;2022-11-20T11:31:05;3.95;;;1.10;;
2652;SDS011;1336;48.692;9.144;2022-11-20T11:33:09;1.20;;;1.10;;
2652;SDS011;1336;48.692;9.144;2022-11-20T11:34:05;1.20;;;1.10;;
2652;SDS011;1336;48.692;9.144;2022-11-20T11:34:59;1.95;;;1.25;;
2652;SDS011;1336;48.692;9.144;2022-11-20T11:35:53;3.25;;;1.40;;
2652;SDS011;1336;48.692;9.144;2022-11-20T11:36:49;1.60;;;1.15;;
2652;SDS011;1336;48.692;9.144;2022-11-20T11:37:45;2.45;;;1.10;;
2652;SDS011;1336;48.692;9.144;2022-11-20T11:38:39;1.52;;;1.30;;